Fort Gratiot Township, Michigan
Current Conditions -  °F | °C
As of 11:57 AM on Monday 22 Dec 2014 (Local Time) from KPHN Reporting Station
Scattered Clouds Scattered Clouds  
Wind Chill: 31°   Ceiling: Unl
Heat Index: 36°   Visibility: 10mi
Dew Point: 30°   Wind: 6mph
Humidity: 81%   Direction: 120°ESE
Pressure: 30.08"   Gusts: NA
Location:  43.0393°N, 82.4847°W
Report Text: KPHN 221657Z AUTO 12005KT 10SM SCT017 02/M01 A3008 RMK AO2
Loading
Personal Weather Stations






























Interactive Weather Map New forecast layout! Learn more

10-Day Weather Forecast

Advertisements
Track Severe Weather on mobile